Time;durP1;ratioP1;P1;durP2;ratioP2;P2;SDS_P1;SDS_P2;PMS_P1;PMS_P2;Temp;Humidity;BMP_temperature;BMP_pressure;BME280_temperature;BME280_humidity;BME280_pressure;Samples;Min_cycle;Max_cycle;Signal;HPM_P1;HPM_P2
2022/10/01 00:00:55;;;;;;;104.72;43.00;;;9.60;99.90;;;;;;5018374;28;20380;-77
2022/10/01 00:03:24;;;;;;;102.30;42.72;;;9.70;99.90;;;;;;5035778;28;20092;-78
2022/10/01 00:06:11;;;;;;;103.63;41.83;;;9.60;99.90;;;;;;5017551;28;20032;-77
2022/10/01 00:08:39;;;;;;;92.40;37.80;;;9.60;99.90;;;;;;5035843;28;20092;-77
2022/10/01 00:11:13;;;;;;;93.90;40.78;;;9.60;99.90;;;;;;5035849;28;20053;-77
2022/10/01 00:13:41;;;;;;;87.15;39.85;;;9.60;99.90;;;;;;5035959;28;20071;-78
2022/10/01 00:16:10;;;;;;;90.50;39.22;;;9.60;99.90;;;;;;5035462;28;20137;-77
2022/10/01 00:18:37;;;;;;;83.38;38.80;;;9.60;99.90;;;;;;5017853;28;20037;-77
2022/10/01 00:21:13;;;;;;;90.00;37.30;;;9.60;99.90;;;;;;5017978;28;20588;-77
2022/10/01 00:23:39;;;;;;;96.97;42.40;;;9.60;99.90;;;;;;5017839;28;20124;-77
2022/10/01 00:26:14;;;;;;;93.10;41.28;;;9.60;99.90;;;;;;5017906;28;20169;-78
2022/10/01 00:28:42;;;;;;;99.28;41.42;;;9.60;99.90;;;;;;5017513;28;20017;-78
2022/10/01 00:31:08;;;;;;;95.00;40.60;;;9.60;99.90;;;;;;5017722;28;20045;-77
2022/10/01 00:33:35;;;;;;;99.80;41.58;;;9.60;99.90;;;;;;5035204;28;20033;-77
2022/10/01 00:36:02;;;;;;;95.28;41.95;;;9.60;99.90;;;;;;5017520;28;20100;-77
2022/10/01 00:38:28;;;;;;;90.80;43.55;;;9.70;99.90;;;;;;5017503;28;20025;-77
2022/10/01 00:40:54;;;;;;;96.38;43.33;;;9.70;99.90;;;;;;5035315;28;20383;-78
2022/10/01 00:43:25;;;;;;;98.43;44.45;;;9.60;99.90;;;;;;5035167;28;20025;-78
2022/10/01 00:45:54;;;;;;;104.00;45.13;;;9.60;99.90;;;;;;5017591;28;20407;-77
2022/10/01 00:48:22;;;;;;;97.97;46.72;;;9.60;99.90;;;;;;5017298;28;20152;-78
2022/10/01 00:50:48;;;;;;;110.80;49.50;;;9.60;99.90;;;;;;5017220;28;20029;-77
2022/10/01 00:53:16;;;;;;;99.40;42.70;;;9.60;99.90;;;;;;5017194;28;20436;-78
2022/10/01 00:55:54;;;;;;;100.00;45.20;;;9.60;99.90;;;;;;5035076;28;20025;-78
2022/10/01 00:58:20;;;;;;;105.07;47.42;;;9.60;99.90;;;;;;5016680;28;20014;-78
2022/10/01 01:00:47;;;;;;;110.97;44.42;;;9.60;99.90;;;;;;5017297;28;20487;-77
2022/10/01 01:03:14;;;;;;;96.25;43.00;;;9.60;99.90;;;;;;5034580;28;20057;-78
2022/10/01 01:05:40;;;;;;;78.20;36.15;;;9.50;99.90;;;;;;5034787;28;20530;-78
2022/10/01 01:08:07;;;;;;;98.65;43.42;;;9.50;99.90;;;;;;5034655;28;20057;-77
2022/10/01 01:10:53;;;;;;;84.47;39.85;;;9.50;99.90;;;;;;5016834;28;20045;-77
2022/10/01 01:13:25;;;;;;;97.15;42.05;;;9.50;99.90;;;;;;5016916;28;20060;-78
2022/10/01 01:16:02;;;;;;;96.00;41.90;;;9.50;99.90;;;;;;5034866;28;20022;-77
2022/10/01 01:18:41;;;;;;;91.85;40.63;;;9.50;99.90;;;;;;5015789;28;20383;-78
2022/10/01 01:21:33;;;;;;;88.78;40.00;;;9.50;99.90;;;;;;5016833;28;20060;-77
2022/10/01 01:24:17;;;;;;;80.85;36.97;;;9.50;99.90;;;;;;5016702;28;20025;-78
2022/10/01 01:26:49;;;;;;;78.47;38.60;;;9.50;99.90;;;;;;5017053;28;20021;-77
2022/10/01 01:29:23;;;;;;;80.32;38.53;;;9.50;99.90;;;;;;5016441;28;20075;-77
2022/10/01 01:31:49;;;;;;;82.82;37.05;;;9.40;99.90;;;;;;5016572;28;20041;-77
2022/10/01 01:34:20;;;;;;;81.50;37.80;;;9.50;99.90;;;;;;5016231;28;20033;-78
2022/10/01 01:36:53;;;;;;;80.55;40.15;;;9.50;99.90;;;;;;5016528;28;20037;-77
2022/10/01 01:39:21;;;;;;;81.85;37.25;;;9.50;99.90;;;;;;5034248;28;20108;-78
2022/10/01 01:41:53;;;;;;;76.30;35.67;;;9.50;99.90;;;;;;5016036;28;20030;-77
2022/10/01 01:44:26;;;;;;;83.97;39.20;;;9.50;99.90;;;;;;5016278;28;20026;-77
2022/10/01 01:46:55;;;;;;;92.90;39.90;;;9.50;99.90;;;;;;5016035;28;20049;-77
2022/10/01 01:49:22;;;;;;;83.30;40.15;;;9.40;99.90;;;;;;5016124;28;20091;-77
2022/10/01 01:52:06;;;;;;;91.22;39.55;;;9.50;99.90;;;;;;5034023;28;20056;-78
2022/10/01 01:54:34;;;;;;;91.90;36.78;;;9.40;99.90;;;;;;5016133;28;20030;-77
2022/10/01 01:57:03;;;;;;;79.60;37.15;;;9.40;99.90;;;;;;5033963;28;20029;-78
2022/10/01 01:59:30;;;;;;;84.47;38.45;;;9.40;99.90;;;;;;5016316;28;20075;-78
2022/10/01 02:01:57;;;;;;;99.90;41.13;;;9.40;99.90;;;;;;5016143;28;20125;-77
2022/10/01 02:04:29;;;;;;;86.38;39.97;;;9.40;99.90;;;;;;5033424;28;20117;-78
2022/10/01 02:07:10;;;;;;;90.03;39.90;;;9.40;99.90;;;;;;5015929;28;20067;-78
2022/10/01 02:10:09;;;;;;;85.32;39.97;;;9.40;99.90;;;;;;5033563;28;20491;-77
2022/10/01 02:12:40;;;;;;;86.35;37.63;;;9.50;99.90;;;;;;5033668;28;20060;-77
2022/10/01 02:15:38;;;;;;;88.43;37.92;;;9.50;99.90;;;;;;5033525;28;20026;-77
2022/10/01 02:18:41;;;;;;;82.00;37.92;;;9.40;99.90;;;;;;5033651;28;20049;-77
2022/10/01 02:21:38;;;;;;;85.30;38.08;;;9.40;99.90;;;;;;4934281;29;20529;-78
2022/10/01 02:24:25;;;;;;;99.95;39.72;;;9.40;99.90;;;;;;5015583;28;20034;-77
2022/10/01 02:26:52;;;;;;;99.47;39.83;;;9.40;99.90;;;;;;5015692;28;20029;-77
2022/10/01 02:29:20;;;;;;;93.15;38.83;;;9.40;99.90;;;;;;5032889;28;20037;-77
2022/10/01 02:31:48;;;;;;;122.95;44.63;;;9.30;99.90;;;;;;5033285;28;20060;-78
2022/10/01 02:34:15;;;;;;;121.13;45.50;;;9.30;99.90;;;;;;5033256;28;20408;-78
2022/10/01 02:36:44;;;;;;;94.03;38.38;;;9.30;99.90;;;;;;5033335;28;20028;-77
2022/10/01 02:39:12;;;;;;;117.53;43.42;;;9.30;99.90;;;;;;5032962;28;20422;-77
2022/10/01 02:41:40;;;;;;;107.63;43.25;;;9.30;99.90;;;;;;5033142;28;20048;-78
2022/10/01 02:44:12;;;;;;;93.93;40.05;;;9.30;99.90;;;;;;5031949;28;20079;-78
2022/10/01 02:47:06;;;;;;;94.68;42.00;;;9.30;99.90;;;;;;5033321;28;20044;-77
2022/10/01 02:49:33;;;;;;;97.60;40.05;;;9.40;99.90;;;;;;5033116;28;20047;-77
2022/10/01 02:52:30;;;;;;;97.32;40.65;;;9.30;99.90;;;;;;5033121;28;20032;-78
2022/10/01 02:55:06;;;;;;;102.13;42.92;;;9.40;99.90;;;;;;5005461;28;20065;-77
2022/10/01 02:57:31;;;;;;;99.55;41.53;;;9.40;99.90;;;;;;5031766;28;20032;-77
2022/10/01 03:00:00;;;;;;;96.93;42.85;;;9.30;99.90;;;;;;5031670;28;20025;-78
2022/10/01 03:02:28;;;;;;;101.25;41.83;;;9.30;99.90;;;;;;5031560;28;20037;-78
2022/10/01 03:04:55;;;;;;;100.80;40.97;;;9.30;99.90;;;;;;5032794;28;20112;-77
2022/10/01 03:07:21;;;;;;;95.97;39.22;;;9.30;99.90;;;;;;5033052;28;20034;-77
2022/10/01 03:09:48;;;;;;;100.50;41.97;;;9.30;99.90;;;;;;5032840;28;20052;-77
2022/10/01 03:12:15;;;;;;;90.88;41.10;;;9.30;99.90;;;;;;5024620;28;20029;-77
2022/10/01 03:14:44;;;;;;;107.75;43.20;;;9.30;99.90;;;;;;5031556;28;20048;-77
2022/10/01 03:17:12;;;;;;;112.18;44.60;;;9.30;99.90;;;;;;5032882;28;20109;-77
2022/10/01 03:19:38;;;;;;;101.60;43.25;;;9.30;99.90;;;;;;5031363;28;20044;-78
2022/10/01 03:22:04;;;;;;;99.35;43.85;;;9.30;99.90;;;;;;5032984;28;20029;-77
2022/10/01 03:24:29;;;;;;;98.38;44.60;;;9.30;99.90;;;;;;5019799;28;20163;-77
2022/10/01 03:26:56;;;;;;;102.70;41.10;;;9.30;99.90;;;;;;5015111;28;20095;-78
2022/10/01 03:29:22;;;;;;;101.50;41.33;;;9.30;99.90;;;;;;5032898;28;20030;-77
2022/10/01 03:31:48;;;;;;;102.55;41.33;;;9.30;99.90;;;;;;5014818;28;20108;-78
2022/10/01 03:34:13;;;;;;;100.00;43.05;;;9.30;99.90;;;;;;5015108;28;20053;-77
2022/10/01 03:36:39;;;;;;;94.70;41.47;;;9.30;99.90;;;;;;5014996;28;20025;-77
2022/10/01 03:39:05;;;;;;;91.93;41.60;;;9.30;99.90;;;;;;5015036;28;20101;-78
2022/10/01 03:41:30;;;;;;;97.28;40.42;;;9.30;99.90;;;;;;5034496;28;20534;-78
2022/10/01 03:43:56;;;;;;;93.28;41.28;;;9.20;99.90;;;;;;5018564;28;20075;-77
2022/10/01 03:46:21;;;;;;;98.78;41.30;;;9.30;99.90;;;;;;5018535;28;20507;-78
2022/10/01 03:48:48;;;;;;;119.32;45.63;;;9.30;99.90;;;;;;5018487;28;20091;-77
2022/10/01 03:51:14;;;;;;;111.50;39.67;;;9.20;99.90;;;;;;5036274;28;20028;-77
2022/10/01 03:53:40;;;;;;;116.05;41.63;;;9.20;99.90;;;;;;5018475;28;20033;-77
2022/10/01 03:56:06;;;;;;;111.68;42.75;;;9.20;99.90;;;;;;5018339;28;20025;-79
2022/10/01 03:58:32;;;;;;;123.18;44.63;;;9.20;99.90;;;;;;5036202;28;20060;-77
2022/10/01 04:00:59;;;;;;;109.32;41.40;;;9.20;99.90;;;;;;5018182;28;20521;-77
2022/10/01 04:03:25;;;;;;;139.27;44.55;;;9.20;99.90;;;;;;5018229;28;20049;-78
2022/10/01 04:05:50;;;;;;;121.05;43.55;;;9.10;99.90;;;;;;5018006;28;20070;-77
2022/10/01 04:08:16;;;;;;;117.75;42.10;;;9.10;99.90;;;;;;5018004;28;20441;-78
2022/10/01 04:10:42;;;;;;;118.13;42.10;;;9.10;99.90;;;;;;5017927;28;20551;-78
2022/10/01 04:13:08;;;;;;;129.85;44.65;;;9.10;99.90;;;;;;5018063;28;20021;-78
2022/10/01 04:15:34;;;;;;;132.65;42.22;;;9.10;99.90;;;;;;5035696;28;20068;-77
2022/10/01 04:18:04;;;;;;;116.07;41.25;;;9.10;99.90;;;;;;5035674;28;20029;-78
2022/10/01 04:20:30;;;;;;;151.63;44.17;;;9.10;99.90;;;;;;5017882;28;20496;-77
2022/10/01 04:22:57;;;;;;;139.95;41.50;;;9.00;99.90;;;;;;5018390;28;20046;-77
2022/10/01 04:25:22;;;;;;;119.18;41.85;;;9.00;99.90;;;;;;5035493;28;20491;-78
2022/10/01 04:27:59;;;;;;;135.00;43.47;;;9.00;99.90;;;;;;5017746;28;20018;-79
2022/10/01 04:30:27;;;;;;;151.02;41.17;;;9.00;99.90;;;;;;5035434;28;20434;-78
2022/10/01 04:32:53;;;;;;;203.75;49.25;;;9.00;99.90;;;;;;5035403;28;20021;-78
2022/10/01 04:35:19;;;;;;;142.13;41.03;;;9.00;99.90;;;;;;5017666;28;20534;-77
2022/10/01 04:37:44;;;;;;;97.35;36.60;;;9.00;99.90;;;;;;5017509;28;20025;-78
2022/10/01 04:40:10;;;;;;;176.05;43.75;;;9.00;99.90;;;;;;5017468;28;20025;-78
2022/10/01 04:42:41;;;;;;;96.55;37.50;;;9.00;99.90;;;;;;5017457;28;20491;-78
2022/10/01 04:45:08;;;;;;;211.63;48.17;;;9.00;99.90;;;;;;5035156;28;20021;-77
2022/10/01 04:47:33;;;;;;;95.00;34.92;;;9.00;99.90;;;;;;5017425;28;20035;-78
2022/10/01 04:49:59;;;;;;;146.60;38.83;;;9.00;99.90;;;;;;5035096;28;20041;-78
2022/10/01 04:52:25;;;;;;;106.88;36.67;;;9.00;99.90;;;;;;5034820;28;20525;-78
2022/10/01 04:54:51;;;;;;;121.72;38.15;;;9.00;99.90;;;;;;5017256;28;20028;-78
2022/10/01 04:57:20;;;;;;;179.82;42.53;;;9.00;99.90;;;;;;5034910;28;20022;-79
2022/10/01 04:59:46;;;;;;;122.60;36.42;;;9.00;99.90;;;;;;5034942;28;20031;-77
2022/10/01 05:02:13;;;;;;;111.65;34.42;;;9.00;99.90;;;;;;5034799;28;20479;-78
2022/10/01 05:04:38;;;;;;;74.97;31.23;;;8.90;99.90;;;;;;5017128;28;20029;-78
2022/10/01 05:07:04;;;;;;;195.63;38.72;;;9.00;99.90;;;;;;5016988;28;20025;-78
2022/10/01 05:09:30;;;;;;;210.88;44.17;;;8.90;99.90;;;;;;5034696;28;20060;-78
2022/10/01 05:11:56;;;;;;;146.68;41.38;;;8.90;99.90;;;;;;5034602;28;20061;-78
2022/10/01 05:14:21;;;;;;;259.83;45.38;;;8.90;99.90;;;;;;5034683;28;20092;-78
2022/10/01 05:16:47;;;;;;;186.25;39.15;;;8.90;99.90;;;;;;5016728;28;20483;-78
2022/10/01 05:19:13;;;;;;;122.60;31.98;;;8.90;99.90;;;;;;5034566;28;20033;-78
2022/10/01 05:21:39;;;;;;;89.07;32.72;;;8.90;99.90;;;;;;5018603;28;20050;-78
2022/10/01 05:24:04;;;;;;;94.63;31.88;;;8.90;99.90;;;;;;5014569;28;20029;-78
2022/10/01 05:26:31;;;;;;;93.90;31.23;;;9.00;99.90;;;;;;5054391;28;20017;-78
2022/10/01 05:28:58;;;;;;;152.43;34.88;;;9.00;99.90;;;;;;5054151;28;20032;-78
2022/10/01 05:31:23;;;;;;;88.80;32.30;;;9.10;99.90;;;;;;5042447;28;20021;-78
2022/10/01 05:33:49;;;;;;;87.63;28.80;;;9.10;99.90;;;;;;5034153;28;20036;-78
2022/10/01 05:36:15;;;;;;;135.57;31.15;;;9.10;99.90;;;;;;5013073;28;20026;-78
2022/10/01 05:38:41;;;;;;;87.35;30.98;;;9.10;99.90;;;;;;4998314;28;20446;-77
2022/10/01 05:41:06;;;;;;;172.32;38.58;;;9.20;99.90;;;;;;5029718;28;20064;-78
2022/10/01 05:43:32;;;;;;;85.35;28.63;;;9.20;99.90;;;;;;5016308;28;20033;-78
2022/10/01 05:46:02;;;;;;;155.48;36.20;;;9.20;99.90;;;;;;5015540;28;20021;-77
2022/10/01 05:48:28;;;;;;;168.88;38.30;;;9.20;99.90;;;;;;5033521;28;20517;-78
2022/10/01 05:50:54;;;;;;;90.78;28.52;;;9.20;99.90;;;;;;5033727;28;20446;-78
2022/10/01 05:53:20;;;;;;;129.48;34.42;;;9.30;99.90;;;;;;5033723;28;20021;-77
2022/10/01 05:55:46;;;;;;;208.38;44.95;;;9.30;99.90;;;;;;5015909;28;20487;-77
2022/10/01 05:58:13;;;;;;;179.52;39.85;;;9.30;99.90;;;;;;5033663;28;20025;-77
2022/10/01 06:00:40;;;;;;;93.70;33.28;;;9.40;99.90;;;;;;5033000;28;20037;-78
2022/10/01 06:03:06;;;;;;;168.98;39.60;;;9.40;99.90;;;;;;5012199;28;20026;-78
2022/10/01 06:05:34;;;;;;;118.22;36.30;;;9.50;99.90;;;;;;5012737;28;20035;-77
2022/10/01 06:08:00;;;;;;;107.22;34.95;;;9.40;99.90;;;;;;5033467;28;20025;-74
2022/10/01 06:10:29;;;;;;;82.80;30.15;;;9.50;99.90;;;;;;5033428;28;20107;-74
2022/10/01 06:13:06;;;;;;;83.35;31.27;;;9.50;99.90;;;;;;5012258;28;20022;-75
2022/10/01 06:15:37;;;;;;;118.72;42.33;;;9.50;99.90;;;;;;5032217;28;20033;-77
2022/10/01 06:18:08;;;;;;;165.20;70.20;;;9.50;99.90;;;;;;5033285;28;20022;-77
2022/10/01 06:20:34;;;;;;;125.40;45.53;;;9.50;99.90;;;;;;5012403;28;20484;-77
2022/10/01 06:23:00;;;;;;;116.15;37.28;;;9.50;99.90;;;;;;5000641;28;20049;-80
2022/10/01 06:25:30;;;;;;;90.55;32.85;;;9.50;99.90;;;;;;5013265;28;20129;-81
2022/10/01 06:27:58;;;;;;;87.32;34.15;;;9.50;99.90;;;;;;5011893;28;20017;-77
2022/10/01 06:30:25;;;;;;;101.07;36.90;;;9.60;99.90;;;;;;5012402;28;20034;-77
2022/10/01 06:32:52;;;;;;;113.95;39.38;;;9.60;99.90;;;;;;5013265;28;20145;-79
2022/10/01 06:35:19;;;;;;;117.18;41.88;;;9.70;99.90;;;;;;5004626;28;20113;-77
2022/10/01 06:37:45;;;;;;;99.88;40.13;;;9.70;99.90;;;;;;5013273;28;20112;-75
2022/10/01 06:40:11;;;;;;;104.20;42.72;;;9.80;99.90;;;;;;5013185;28;20048;-77
2022/10/01 06:42:36;;;;;;;104.85;47.97;;;9.90;99.90;;;;;;5013102;28;20022;-78
2022/10/01 06:45:02;;;;;;;158.68;63.90;;;9.90;99.90;;;;;;5012693;28;20026;-76
2022/10/01 06:47:28;;;;;;;108.15;51.58;;;9.90;99.90;;;;;;5011628;28;20033;-81
2022/10/01 06:49:54;;;;;;;93.43;41.00;;;10.00;99.90;;;;;;5012817;28;20041;-80
2022/10/01 06:55:03;;;;;;;111.93;47.85;;;10.10;99.90;;;;;;5012870;28;20040;-79
2022/10/01 06:57:29;;;;;;;104.82;45.45;;;10.10;99.90;;;;;;5007597;28;20397;-79
2022/10/01 06:59:56;;;;;;;108.32;48.63;;;10.10;99.90;;;;;;5015188;28;20034;-78
2022/10/01 07:02:27;;;;;;;100.82;45.70;;;10.20;99.90;;;;;;5012633;28;20484;-75
2022/10/01 07:04:57;;;;;;;107.78;51.45;;;10.20;99.90;;;;;;5012678;28;20026;-73
2022/10/01 07:07:25;;;;;;;83.35;39.08;;;10.30;99.90;;;;;;5012646;28;20113;-78
2022/10/01 07:09:50;;;;;;;91.63;41.95;;;10.30;99.90;;;;;;5012641;28;20045;-73
2022/10/01 07:12:16;;;;;;;100.85;43.65;;;10.40;99.90;;;;;;5012809;28;20026;-74
2022/10/01 07:14:41;;;;;;;86.25;42.20;;;10.50;99.90;;;;;;5012504;28;20083;-73
2022/10/01 07:17:07;;;;;;;87.40;41.80;;;10.60;99.90;;;;;;5013929;28;20026;-78
2022/10/01 07:19:33;;;;;;;88.88;42.88;;;10.60;99.90;;;;;;5016604;28;20042;-79
2022/10/01 07:21:58;;;;;;;112.60;48.72;;;10.70;99.90;;;;;;5016421;28;20037;-74
2022/10/01 07:24:24;;;;;;;90.68;41.53;;;10.70;99.90;;;;;;5014932;28;20149;-74
2022/10/01 07:26:50;;;;;;;82.90;40.08;;;10.80;99.90;;;;;;5014564;28;20026;-74
2022/10/01 07:29:16;;;;;;;83.93;40.92;;;10.90;99.90;;;;;;5014682;28;20025;-78
2022/10/01 07:31:41;;;;;;;114.18;55.67;;;10.90;99.90;;;;;;5001390;28;20019;-78
2022/10/01 07:34:07;;;;;;;72.13;36.72;;;11.00;99.90;;;;;;5014722;28;20084;-74
2022/10/01 07:36:32;;;;;;;78.55;40.13;;;11.00;99.90;;;;;;5015361;28;20542;-78
2022/10/01 07:38:59;;;;;;;75.07;37.38;;;11.20;99.90;;;;;;5014014;28;20034;-78
2022/10/01 07:41:25;;;;;;;76.45;38.63;;;11.20;99.90;;;;;;5014863;28;20030;-74
2022/10/01 07:43:50;;;;;;;98.38;52.90;;;11.20;99.90;;;;;;5015448;28;20034;-73
2022/10/01 07:46:16;;;;;;;53.30;27.60;;;11.30;99.90;;;;;;5012269;28;20029;-78
2022/10/01 07:48:42;;;;;;;53.40;28.58;;;11.30;99.90;;;;;;5012645;28;20021;-73
2022/10/01 07:51:08;;;;;;;52.50;26.70;;;11.30;99.90;;;;;;5014043;28;20025;-78
2022/10/01 07:53:34;;;;;;;53.15;28.23;;;11.40;99.90;;;;;;4999747;28;20030;-78
2022/10/01 07:56:00;;;;;;;51.47;26.58;;;11.40;99.90;;;;;;5013071;28;20014;-78
2022/10/01 07:58:26;;;;;;;50.65;28.48;;;11.60;99.90;;;;;;5013214;28;20468;-74
2022/10/01 08:00:57;;;;;;;53.28;28.42;;;11.50;99.90;;;;;;5015442;28;20030;-77
2022/10/01 08:03:23;;;;;;;45.22;26.60;;;11.60;99.90;;;;;;5015772;28;20080;-73
2022/10/01 08:05:49;;;;;;;45.13;23.95;;;11.60;99.90;;;;;;5014606;28;20029;-72
2022/10/01 08:08:15;;;;;;;50.40;26.15;;;11.70;99.90;;;;;;5014238;28;20124;-77
2022/10/01 08:10:40;;;;;;;41.80;23.83;;;11.80;99.90;;;;;;5015841;28;20042;-73
2022/10/01 08:13:16;;;;;;;44.15;23.38;;;11.80;99.90;;;;;;5015363;28;20065;-74
2022/10/01 08:15:44;;;;;;;43.53;25.20;;;11.80;99.90;;;;;;5015288;28;20026;-78
2022/10/01 08:18:10;;;;;;;51.55;32.35;;;11.90;99.90;;;;;;5015296;28;20559;-76
2022/10/01 08:20:38;;;;;;;41.75;23.92;;;11.90;99.90;;;;;;5012867;28;20120;-77
2022/10/01 08:23:05;;;;;;;44.20;23.90;;;12.00;99.90;;;;;;5014969;28;20072;-77
2022/10/01 08:25:31;;;;;;;36.63;22.58;;;12.00;99.90;;;;;;5026818;28;20208;-76
2022/10/01 08:27:59;;;;;;;38.08;22.70;;;12.10;99.90;;;;;;5034821;28;20499;-76
2022/10/01 08:30:25;;;;;;;35.90;21.13;;;12.10;99.90;;;;;;5034721;28;20431;-76
2022/10/01 08:32:55;;;;;;;42.47;24.65;;;12.20;99.90;;;;;;5038970;28;20382;-77
2022/10/01 08:35:22;;;;;;;42.40;23.20;;;12.20;99.90;;;;;;5055233;28;20033;-76
2022/10/01 08:37:48;;;;;;;42.97;24.17;;;12.30;99.90;;;;;;5027268;28;20116;-75
2022/10/01 08:40:14;;;;;;;36.65;20.73;;;12.40;99.90;;;;;;5034789;28;20045;-71
2022/10/01 08:42:46;;;;;;;40.40;22.55;;;12.40;99.90;;;;;;5032802;28;20080;-72
2022/10/01 08:45:16;;;;;;;41.30;22.55;;;12.50;99.90;;;;;;5031669;28;20112;-71
2022/10/01 08:47:50;;;;;;;49.92;30.00;;;12.60;99.90;;;;;;5034698;28;20029;-71
2022/10/01 08:50:32;;;;;;;41.28;22.00;;;12.60;99.90;;;;;;5025775;28;20056;-71
2022/10/01 08:53:01;;;;;;;36.22;20.80;;;12.60;99.90;;;;;;5023923;28;20033;-71
2022/10/01 08:55:35;;;;;;;36.92;21.75;;;12.60;99.90;;;;;;5015675;28;20462;-76
2022/10/01 08:58:03;;;;;;;38.15;19.40;;;12.70;99.90;;;;;;5015040;28;20034;-76
2022/10/01 09:00:31;;;;;;;33.88;18.92;;;12.80;99.90;;;;;;5013691;28;20037;-71
2022/10/01 09:03:00;;;;;;;29.52;19.08;;;12.90;99.90;;;;;;5031887;28;20105;-75
2022/10/01 09:05:54;;;;;;;30.63;19.33;;;13.10;99.90;;;;;;5013610;28;20037;-76
2022/10/01 09:08:42;;;;;;;35.55;19.83;;;13.20;99.90;;;;;;5030185;28;20035;-76
2022/10/01 09:11:32;;;;;;;29.35;17.33;;;13.30;99.90;;;;;;5012324;28;20076;-76
2022/10/01 09:14:07;;;;;;;28.73;16.42;;;13.40;99.90;;;;;;5033581;28;20100;-75
2022/10/01 09:17:01;;;;;;;31.77;17.23;;;13.40;99.90;;;;;;5033145;28;20065;-70
2022/10/01 09:19:45;;;;;;;28.70;16.00;;;13.40;99.90;;;;;;5015191;28;20029;-75
2022/10/01 09:22:24;;;;;;;25.60;15.05;;;13.40;99.90;;;;;;5032261;28;20053;-76
2022/10/01 09:25:12;;;;;;;25.77;15.70;;;13.50;99.90;;;;;;5033411;28;20022;-76
2022/10/01 09:27:37;;;;;;;33.40;17.40;;;13.60;99.90;;;;;;5033636;28;20049;-71
2022/10/01 09:30:15;;;;;;;28.38;17.02;;;13.70;99.90;;;;;;5033171;28;20491;-76
2022/10/01 09:32:45;;;;;;;23.85;15.13;;;13.70;99.90;;;;;;5032288;28;20028;-71
2022/10/01 09:35:39;;;;;;;24.48;14.85;;;13.80;99.90;;;;;;5024007;28;20072;-71
2022/10/01 09:38:19;;;;;;;26.50;15.48;;;13.70;99.90;;;;;;5032231;28;20029;-71
2022/10/01 09:40:51;;;;;;;26.02;15.65;;;13.80;99.90;;;;;;5015247;28;20041;-76
2022/10/01 09:43:20;;;;;;;28.38;19.05;;;13.80;99.90;;;;;;5014807;28;20024;-76
2022/10/01 09:45:46;;;;;;;29.42;16.20;;;13.80;99.90;;;;;;5014554;28;20042;-76
2022/10/01 09:48:38;;;;;;;27.65;16.60;;;13.90;99.90;;;;;;5029487;28;20025;-71
2022/10/01 09:51:20;;;;;;;32.78;16.55;;;13.90;99.90;;;;;;5032318;28;20057;-71
2022/10/01 09:54:14;;;;;;;25.17;16.80;;;13.90;99.90;;;;;;5025374;28;20467;-71
2022/10/01 09:56:46;;;;;;;30.98;17.60;;;13.90;99.90;;;;;;5014813;28;20391;-71
2022/10/01 09:59:19;;;;;;;35.22;17.38;;;14.00;99.90;;;;;;5014764;28;20029;-72
2022/10/01 10:01:47;;;;;;;;;;;14.10;99.90;;;;;;5032265;28;20041;-71
2022/10/01 10:04:19;;;;;;;25.90;15.77;;;14.10;99.90;;;;;;5031770;28;19909;-71
2022/10/01 10:06:46;;;;;;;24.08;14.52;;;14.20;99.90;;;;;;5031779;28;20483;-76
2022/10/01 10:09:17;;;;;;;20.20;14.48;;;14.20;99.90;;;;;;5014514;28;20087;-71
2022/10/01 10:11:44;;;;;;;24.80;14.93;;;14.20;99.90;;;;;;5014812;28;20125;-70
2022/10/01 10:14:19;;;;;;;22.77;14.73;;;14.30;99.90;;;;;;5014396;28;20021;-71
2022/10/01 10:16:46;;;;;;;25.67;14.23;;;14.40;99.90;;;;;;5031734;28;20121;-71
2022/10/01 10:19:23;;;;;;;20.02;14.88;;;14.40;99.90;;;;;;5031359;28;20025;-75
2022/10/01 10:21:55;;;;;;;20.30;14.20;;;14.40;99.90;;;;;;5028124;28;20132;-74
2022/10/01 10:24:26;;;;;;;;;;;14.50;99.90;;;;;;5013728;28;20030;-74
2022/10/01 10:26:57;;;;;;;23.83;15.52;;;14.50;99.90;;;;;;5014514;28;19905;-75
2022/10/01 10:29:30;;;;;;;26.23;14.55;;;14.40;99.90;;;;;;5030260;28;20103;-75
2022/10/01 10:31:57;;;;;;;22.40;13.32;;;14.50;99.90;;;;;;5014301;28;20030;-72
2022/10/01 10:34:47;;;;;;;18.55;13.82;;;14.50;99.90;;;;;;5030362;28;20030;-76
2022/10/01 10:37:15;;;;;;;21.58;14.07;;;14.60;99.90;;;;;;5031284;28;20376;-76
2022/10/01 10:39:45;;;;;;;18.55;12.32;;;14.70;99.90;;;;;;5012909;28;20034;-76
2022/10/01 10:42:14;;;;;;;21.02;13.15;;;14.70;99.90;;;;;;5013782;28;20037;-76
2022/10/01 10:44:42;;;;;;;24.05;14.43;;;14.70;99.90;;;;;;5020867;28;20064;-76
2022/10/01 10:47:13;;;;;;;22.48;14.32;;;14.70;99.90;;;;;;5039576;28;20107;-71
2022/10/01 10:49:48;;;;;;;19.80;13.60;;;14.80;99.90;;;;;;5027344;28;20042;-70
2022/10/01 10:52:32;;;;;;;23.63;15.68;;;14.80;99.90;;;;;;5037243;28;20108;-72
2022/10/01 10:54:59;;;;;;;22.42;14.68;;;14.90;99.90;;;;;;5013898;28;20040;-71
2022/10/01 10:57:29;;;;;;;23.85;14.85;;;14.90;99.90;;;;;;5032192;28;20386;-75
2022/10/01 11:00:11;;;;;;;21.67;14.60;;;15.00;99.90;;;;;;5032463;28;20581;-75
2022/10/01 11:02:39;;;;;;;25.50;14.95;;;15.00;99.90;;;;;;5014771;28;20446;-75
2022/10/01 11:05:20;;;;;;;19.67;12.90;;;15.00;99.90;;;;;;5014939;28;20026;-75
2022/10/01 11:07:47;;;;;;;19.38;13.07;;;15.00;99.90;;;;;;5032986;28;20030;-71
2022/10/01 11:10:37;;;;;;;23.08;13.30;;;15.10;99.90;;;;;;5015160;28;20056;-71
2022/10/01 11:13:16;;;;;;;21.23;12.85;;;15.20;99.90;;;;;;5032874;28;20471;-71
2022/10/01 11:16:21;;;;;;;24.33;14.90;;;15.10;99.90;;;;;;5015415;28;20487;-75
2022/10/01 11:19:11;;;;;;;21.38;12.95;;;15.20;99.90;;;;;;4996886;28;20041;-75
2022/10/01 11:22:04;;;;;;;25.30;14.98;;;15.30;99.90;;;;;;5013005;28;20053;-71
2022/10/01 11:24:44;;;;;;;22.52;13.05;;;15.30;99.90;;;;;;5012933;28;20065;-75
2022/10/01 11:27:26;;;;;;;22.00;13.73;;;15.30;99.90;;;;;;5013214;28;20029;-75
2022/10/01 11:30:10;;;;;;;22.85;14.05;;;15.40;99.90;;;;;;5014012;28;20029;-71
2022/10/01 11:32:47;;;;;;;24.55;14.52;;;15.40;99.90;;;;;;5032872;28;20037;-75
2022/10/01 11:35:32;;;;;;;15.23;11.45;;;15.40;99.90;;;;;;5032965;28;20017;-72
2022/10/01 11:38:17;;;;;;;14.55;10.73;;;15.30;99.90;;;;;;5032788;28;20022;-71
2022/10/01 11:40:53;;;;;;;14.57;9.80;;;15.40;99.90;;;;;;5015046;28;20395;-75
2022/10/01 11:43:53;;;;;;;17.90;11.48;;;15.40;99.90;;;;;;5032627;28;20028;-75
2022/10/01 11:46:36;;;;;;;18.73;12.02;;;15.40;99.90;;;;;;4969445;28;20034;-75
2022/10/01 11:49:43;;;;;;;15.32;11.52;;;15.40;99.90;;;;;;5014513;28;20032;-75
2022/10/01 11:52:13;;;;;;;16.58;10.88;;;15.30;99.90;;;;;;5015373;28;20072;-76
2022/10/01 11:54:52;;;;;;;17.27;10.63;;;15.20;99.90;;;;;;5032596;28;20057;-72
2022/10/01 12:00:09;;;;;;;17.52;12.20;;;15.10;99.90;;;;;;5032584;28;20033;-71
2022/10/01 12:02:57;;;;;;;19.58;13.23;;;15.10;99.90;;;;;;5016758;28;20125;-71
2022/10/01 12:05:30;;;;;;;14.85;9.60;;;15.00;99.90;;;;;;5036000;28;20053;-71
2022/10/01 12:08:12;;;;;;;14.93;10.43;;;14.90;99.90;;;;;;5018249;28;20029;-75
2022/10/01 12:10:38;;;;;;;;;;;14.90;99.90;;;;;;5018586;28;20038;-75
2022/10/01 12:13:22;;;;;;;16.52;11.02;;;15.00;99.90;;;;;;5035764;28;20256;-71
2022/10/01 12:16:03;;;;;;;17.25;10.80;;;15.00;99.90;;;;;;5035961;28;20026;-71
2022/10/01 12:18:55;;;;;;;18.67;11.27;;;15.10;99.90;;;;;;5035520;28;20021;-71
2022/10/01 12:21:24;;;;;;;17.45;11.43;;;15.10;99.90;;;;;;5018183;28;20071;-72
2022/10/01 12:23:59;;;;;;;18.05;11.57;;;15.10;99.90;;;;;;5035460;28;20433;-75
2022/10/01 12:26:30;;;;;;;16.25;10.38;;;15.10;99.90;;;;;;5035760;28;20026;-75
2022/10/01 12:29:13;;;;;;;17.55;12.40;;;15.00;99.90;;;;;;5035208;28;20068;-71
2022/10/01 12:31:46;;;;;;;20.58;12.63;;;15.10;99.90;;;;;;5035620;28;20033;-71
2022/10/01 12:34:42;;;;;;;20.35;13.35;;;15.00;99.90;;;;;;5035066;28;20400;-71
2022/10/01 12:37:48;;;;;;;22.42;14.43;;;14.90;99.90;;;;;;5014974;28;20488;-71
2022/10/01 12:40:41;;;;;;;18.40;13.13;;;15.00;99.90;;;;;;5035224;28;20029;-71
2022/10/01 12:43:26;;;;;;;;;;;14.90;99.90;;;;;;5024657;28;20029;-71
2022/10/01 12:46:23;;;;;;;20.90;13.73;;;14.90;99.90;;;;;;5035333;28;19909;-75
2022/10/01 12:48:56;;;;;;;21.00;12.98;;;14.80;99.90;;;;;;5017137;28;20026;-75
2022/10/01 12:51:25;;;;;;;17.50;12.38;;;14.80;99.90;;;;;;5035331;28;20099;-75
2022/10/01 12:54:25;;;;;;;21.42;11.63;;;14.70;99.90;;;;;;5017309;28;20036;-71
2022/10/01 12:57:13;;;;;;;15.55;10.25;;;14.70;99.90;;;;;;5035289;28;20025;-71
2022/10/01 12:59:58;;;;;;;15.93;11.18;;;14.70;99.90;;;;;;5018374;28;20073;-76